createdAt,value
2023-10-09T00:02:15.502Z,101645.69
2023-10-09T00:04:46.656Z,101637.69
2023-10-09T00:07:18.540Z,101629.72
2023-10-09T00:09:48.489Z,101628.75
2023-10-09T00:12:17.508Z,101643.63
2023-10-09T00:14:49.454Z,101634.88
2023-10-09T00:17:23.013Z,101637.41
2023-10-09T00:19:52.876Z,101630.38
2023-10-09T00:22:30.063Z,101626.84
2023-10-09T00:25:12.522Z,101625.91
2023-10-09T00:27:43.721Z,101627.56
2023-10-09T00:30:16.551Z,101621.28
2023-10-09T00:33:01.042Z,101610.84
2023-10-09T00:35:42.923Z,101621.38
2023-10-09T00:38:19.149Z,101615.22
2023-10-09T00:40:48.827Z,101618.69
2023-10-09T00:43:16.663Z,101610.91
2023-10-09T00:45:45.940Z,101612.56
2023-10-09T00:48:16.128Z,101592.41
2023-10-09T00:50:53.466Z,101598.50
2023-10-09T00:53:31.808Z,101593.22
2023-10-09T00:56:05.466Z,101605.44
2023-10-09T00:58:37.472Z,101604.63
2023-10-09T01:01:11.250Z,101595.88
2023-10-09T01:03:41.686Z,101600.25
2023-10-09T01:06:17.963Z,101593.81
2023-10-09T01:08:56.453Z,101574.38
2023-10-09T01:11:30.436Z,101562.84
2023-10-09T01:14:12.859Z,101566.09
2023-10-09T01:16:43.021Z,101563.34
2023-10-09T01:19:21.166Z,101557.47
2023-10-09T01:21:51.278Z,101558.06
2023-10-09T01:24:21.750Z,101555.16
2023-10-09T01:26:50.779Z,101549.66
2023-10-09T01:29:20.751Z,101566.59
2023-10-09T01:31:56.269Z,101567.31
2023-10-09T01:34:27.607Z,101552.94
2023-10-09T01:36:57.019Z,101555.47
2023-10-09T01:39:29.522Z,101550.25
2023-10-09T01:42:00.657Z,101559.69
2023-10-09T01:44:31.654Z,101561.97
2023-10-09T01:46:59.528Z,101563.56
2023-10-09T01:49:38.201Z,101569.25
2023-10-09T01:52:09.993Z,101566.25
2023-10-09T01:54:39.629Z,101557.41
2023-10-09T01:57:10.988Z,101560.22
2023-10-09T01:59:44.426Z,101557.59
2023-10-09T02:02:29.064Z,101556.97
2023-10-09T02:05:08.828Z,101563.91
2023-10-09T02:07:42.772Z,101564.72
2023-10-09T02:10:22.899Z,101558.50
2023-10-09T02:12:53.822Z,101558.50
2023-10-09T02:15:41.566Z,101555.94
2023-10-09T02:18:19.996Z,101548.94
2023-10-09T02:20:49.142Z,101556.78
2023-10-09T02:23:18.519Z,101554.09
2023-10-09T02:25:48.711Z,101548.75
2023-10-09T02:28:19.614Z,101551.47
2023-10-09T02:30:49.136Z,101563.41
2023-10-09T02:33:20.156Z,101555.34
2023-10-09T02:35:52.418Z,101559.53
2023-10-09T02:38:24.152Z,101546.28
2023-10-09T02:41:22.407Z,101553.44
2023-10-09T02:43:51.836Z,101552.59
2023-10-09T02:46:29.978Z,101542.84
2023-10-09T02:48:59.927Z,101543.03
2023-10-09T02:51:42.287Z,101531.47
2023-10-09T02:54:19.764Z,101522.84
2023-10-09T02:56:56.776Z,101525.53
2023-10-09T02:59:25.010Z,101533.44
2023-10-09T03:01:53.957Z,101531.69
2023-10-09T03:04:25.049Z,101524.63
2023-10-09T03:06:54.311Z,101538.59
2023-10-09T03:09:28.190Z,101547.31
2023-10-09T03:12:03.740Z,101555.16
2023-10-09T03:14:32.553Z,101554.25
2023-10-09T03:17:01.234Z,101548.69
2023-10-09T03:19:29.831Z,101554.06
2023-10-09T03:21:58.636Z,101552.25
2023-10-09T03:24:28.540Z,101551.34
2023-10-09T03:26:57.986Z,101558.19
2023-10-09T03:29:26.589Z,101561.88
2023-10-09T03:31:56.582Z,101563.53
2023-10-09T03:34:25.010Z,101562.50
2023-10-09T03:37:01.153Z,101572.13
2023-10-09T03:39:35.474Z,101561.63
2023-10-09T03:42:06.642Z,101559.84
2023-10-09T03:44:35.346Z,101544.16
2023-10-09T03:47:03.785Z,101541.69
2023-10-09T03:49:33.038Z,101540.00
2023-10-09T03:52:02.710Z,101535.53
2023-10-09T03:54:31.905Z,101545.13
2023-10-09T03:57:00.314Z,101533.78
2023-10-09T03:59:33.068Z,101537.31
2023-10-09T04:02:01.183Z,101530.16
2023-10-09T04:04:29.907Z,101520.53
2023-10-09T04:06:57.869Z,101520.81
2023-10-09T04:09:40.727Z,101518.84
2023-10-09T04:12:21.818Z,101532.94
2023-10-09T04:14:56.100Z,101537.22
2023-10-09T04:17:34.397Z,101542.38
2023-10-09T04:20:31.251Z,101536.09
2023-10-09T04:23:06.196Z,101537.03
2023-10-09T04:25:43.269Z,101544.88
2023-10-09T04:28:20.317Z,101538.75
2023-10-09T04:30:54.713Z,101541.44
2023-10-09T04:33:36.083Z,101529.28
2023-10-09T04:36:22.761Z,101539.84
2023-10-09T04:39:17.154Z,101545.94
2023-10-09T04:42:14.558Z,101549.38
2023-10-09T04:44:52.797Z,101555.63
2023-10-09T04:47:26.674Z,101568.56
2023-10-09T04:50:03.320Z,101573.00
2023-10-09T04:52:48.035Z,101577.34
2023-10-09T04:55:20.097Z,101593.19
2023-10-09T04:58:02.898Z,101607.25
2023-10-09T05:01:03.113Z,101603.88
2023-10-09T05:03:44.569Z,101607.56
2023-10-09T05:06:30.894Z,101615.59
2023-10-09T05:09:09.128Z,101615.59
2023-10-09T05:11:54.411Z,101613.84
2023-10-09T05:14:39.444Z,101604.13
2023-10-09T05:17:10.356Z,101598.00
2023-10-09T05:19:56.025Z,101603.19
2023-10-09T05:22:37.937Z,101604.13
2023-10-09T05:25:17.171Z,101570.53
2023-10-09T05:27:51.723Z,101568.69
2023-10-09T05:30:33.196Z,101581.91
2023-10-09T05:33:00.386Z,101589.81
2023-10-09T05:35:40.887Z,101585.50
2023-10-09T05:38:24.581Z,101581.22
2023-10-09T05:41:05.855Z,101595.34
2023-10-09T05:43:51.144Z,101588.28
2023-10-09T05:46:18.985Z,101575.19
2023-10-09T05:49:10.269Z,101570.03
2023-10-09T05:51:54.610Z,101576.28
2023-10-09T05:54:40.253Z,101583.94
2023-10-09T05:57:25.695Z,101560.19
2023-10-09T06:00:11.192Z,101549.63
2023-10-09T06:03:08.001Z,101548.91
2023-10-09T06:05:42.782Z,101533.25
2023-10-09T06:08:14.098Z,101555.28
2023-10-09T06:10:43.071Z,101561.69
2023-10-09T06:13:38.655Z,101575.06
2023-10-09T06:16:21.375Z,101581.28
2023-10-09T06:19:09.272Z,101590.09
2023-10-09T06:22:03.375Z,101600.78
2023-10-09T06:24:43.037Z,101592.97
2023-10-09T06:27:26.657Z,101598.09
2023-10-09T06:30:13.756Z,101601.63
2023-10-09T06:32:50.763Z,101600.03
2023-10-09T06:35:18.736Z,101599.19
2023-10-09T06:38:05.551Z,101591.28
2023-10-09T06:40:54.116Z,101587.53
2023-10-09T06:43:29.067Z,101585.69
2023-10-09T06:46:19.136Z,101565.38
2023-10-09T06:48:47.138Z,101558.44
2023-10-09T06:51:37.820Z,101571.59
2023-10-09T06:54:08.045Z,101574.81
2023-10-09T06:56:54.737Z,101562.69
2023-10-09T06:59:25.305Z,101560.78
2023-10-09T07:02:07.595Z,101553.00
2023-10-09T07:04:55.857Z,101572.25
2023-10-09T07:07:25.854Z,101569.88
2023-10-09T07:10:12.135Z,101580.22
2023-10-09T07:12:45.566Z,101570.53
2023-10-09T07:15:31.384Z,101577.50
2023-10-09T07:18:19.364Z,101576.41
2023-10-09T07:21:00.155Z,101563.28
2023-10-09T07:23:33.965Z,101565.84
2023-10-09T07:26:19.847Z,101554.31
2023-10-09T07:28:50.530Z,101566.72
2023-10-09T07:31:41.146Z,101562.28
2023-10-09T07:34:32.003Z,101580.56
2023-10-09T07:37:04.986Z,101582.28
2023-10-09T07:39:36.950Z,101581.44
2023-10-09T07:42:28.023Z,101588.31
2023-10-09T07:45:12.534Z,101581.16
2023-10-09T07:48:03.765Z,101581.78
2023-10-09T07:50:42.024Z,101581.69
2023-10-09T07:53:20.202Z,101610.41
2023-10-09T07:55:55.373Z,101621.94
2023-10-09T07:58:26.293Z,101645.63
2023-10-09T08:01:16.750Z,101656.81
2023-10-09T08:03:49.934Z,101662.88
2023-10-09T08:06:37.947Z,101666.94
2023-10-09T08:09:39.940Z,101671.06
2023-10-09T08:12:36.705Z,101661.94
2023-10-09T08:15:19.047Z,101663.59
2023-10-09T08:17:52.254Z,101669.47
2023-10-09T08:20:26.120Z,101682.63
2023-10-09T08:22:57.011Z,101699.03
2023-10-09T08:25:28.433Z,101692.56
2023-10-09T08:27:58.486Z,101691.44
2023-10-09T08:30:30.279Z,101688.41
2023-10-09T08:35:49.427Z,101682.16
2023-10-09T08:38:24.688Z,101681.75
2023-10-09T08:40:59.418Z,101690.31
2023-10-09T08:43:32.080Z,101697.97
2023-10-09T08:46:02.484Z,101690.09
2023-10-09T08:48:32.859Z,101703.16
2023-10-09T08:51:01.370Z,101702.78
2023-10-09T08:53:29.716Z,101700.81
2023-10-09T08:55:58.256Z,101686.94
2023-10-09T08:58:32.797Z,101679.84
2023-10-09T09:01:02.013Z,101688.00
2023-10-09T09:03:40.255Z,101686.34
2023-10-09T09:06:08.354Z,101686.38
2023-10-09T09:08:38.357Z,101682.22
2023-10-09T09:11:13.762Z,101683.88
2023-10-09T09:13:43.560Z,101684.88
2023-10-09T09:16:19.063Z,101682.22
2023-10-09T09:19:01.925Z,101688.44
2023-10-09T09:21:30.091Z,101685.06
2023-10-09T09:24:01.915Z,101683.88
2023-10-09T09:26:39.560Z,101684.06
2023-10-09T09:29:08.366Z,101688.03
2023-10-09T09:31:39.070Z,101690.56
2023-10-09T09:34:18.135Z,101692.28
2023-10-09T09:36:55.795Z,101688.72
2023-10-09T09:39:35.501Z,101688.94
2023-10-09T09:42:15.166Z,101687.78
2023-10-09T09:44:45.840Z,101690.94
2023-10-09T09:47:24.813Z,101688.38
2023-10-09T09:50:01.059Z,101689.03
2023-10-09T09:52:39.270Z,101689.63
2023-10-09T09:55:17.797Z,101707.88
2023-10-09T09:57:52.816Z,101700.81
2023-10-09T10:00:31.976Z,101714.81
2023-10-09T10:03:03.561Z,101717.88
2023-10-09T10:05:33.263Z,101724.81
2023-10-09T10:08:00.605Z,101730.25
2023-10-09T10:10:40.575Z,101725.88
2023-10-09T10:13:16.011Z,101717.94
2023-10-09T10:16:22.237Z,101722.19
2023-10-09T10:19:08.333Z,101719.19
2023-10-09T10:21:41.248Z,101713.59
2023-10-09T10:24:53.745Z,101721.09
2023-10-09T10:27:29.933Z,101706.84
2023-10-09T10:30:31.470Z,101709.47
2023-10-09T10:33:10.411Z,101712.00
2023-10-09T10:35:55.169Z,101721.78
2023-10-09T10:38:45.947Z,101713.50
2023-10-09T10:41:17.832Z,101706.00
2023-10-09T10:44:21.992Z,101707.44
2023-10-09T10:46:53.741Z,101712.31
2023-10-09T10:49:23.322Z,101714.66
2023-10-09T10:52:02.534Z,101721.69
2023-10-09T10:54:48.326Z,101726.13
2023-10-09T10:57:30.045Z,101723.16
2023-10-09T11:00:35.052Z,101719.75
2023-10-09T11:03:14.558Z,101728.69
2023-10-09T11:05:44.726Z,101720.53
2023-10-09T11:08:12.872Z,101718.75
2023-10-09T11:10:51.196Z,101720.88
2023-10-09T11:13:34.395Z,101723.25
2023-10-09T11:16:25.337Z,101731.13
2023-10-09T11:18:53.289Z,101731.56
2023-10-09T11:21:33.298Z,101744.00
2023-10-09T11:24:10.559Z,101742.22
2023-10-09T11:26:41.717Z,101750.47
2023-10-09T11:29:17.647Z,101746.03
2023-10-09T11:32:00.788Z,101738.03
2023-10-09T11:34:31.027Z,101729.19
2023-10-09T11:37:00.412Z,101739.03
2023-10-09T11:39:33.739Z,101733.81
2023-10-09T11:42:07.312Z,101728.38
2023-10-09T11:44:40.606Z,101733.38
2023-10-09T11:47:33.795Z,101744.06
2023-10-09T11:50:18.237Z,101739.13
2023-10-09T11:53:21.251Z,101738.56
2023-10-09T11:55:50.169Z,101741.22
2023-10-09T11:58:23.810Z,101743.34
2023-10-09T12:00:57.878Z,101745.25
2023-10-09T12:03:29.546Z,101745.34
2023-10-09T12:06:05.495Z,101736.69
2023-10-09T12:08:33.898Z,101742.13
2023-10-09T12:11:04.114Z,101746.63
2023-10-09T12:13:33.416Z,101747.34
2023-10-09T12:16:01.311Z,101747.56
2023-10-09T12:18:29.658Z,101756.53
2023-10-09T12:21:03.930Z,101752.97
2023-10-09T12:23:36.683Z,101750.13
2023-10-09T12:26:06.199Z,101752.28
2023-10-09T12:28:35.808Z,101753.28
2023-10-09T12:31:03.857Z,101750.63
2023-10-09T12:33:32.214Z,101757.47
2023-10-09T12:36:01.694Z,101734.75
2023-10-09T12:38:33.742Z,101742.06
2023-10-09T12:41:09.616Z,101737.19
2023-10-09T12:43:39.780Z,101728.53
2023-10-09T12:46:10.418Z,101734.00
2023-10-09T12:48:47.394Z,101738.44
2023-10-09T12:51:17.506Z,101729.56
2023-10-09T12:53:45.365Z,101733.13
2023-10-09T12:56:13.789Z,101729.47
2023-10-09T12:58:53.796Z,101727.53
2023-10-09T13:01:22.531Z,101725.41
2023-10-09T13:03:51.563Z,101718.66
2023-10-09T13:06:25.389Z,101723.03
2023-10-09T13:08:57.118Z,101720.31
2023-10-09T13:11:27.959Z,101716.09
2023-10-09T13:14:03.862Z,101721.91
2023-10-09T13:16:35.603Z,101720.03
2023-10-09T13:19:13.192Z,101714.16
2023-10-09T13:21:41.663Z,101714.22
2023-10-09T13:24:15.044Z,101704.69
2023-10-09T13:26:46.258Z,101698.47
2023-10-09T13:29:25.757Z,101697.47
2023-10-09T13:31:59.721Z,101712.25
2023-10-09T13:34:29.544Z,101715.59
2023-10-09T13:37:00.518Z,101703.78
2023-10-09T13:39:28.752Z,101703.41
2023-10-09T13:42:01.502Z,101702.41
2023-10-09T13:44:32.045Z,101699.22
2023-10-09T13:47:02.835Z,101697.63
2023-10-09T13:49:32.264Z,101701.88
2023-10-09T13:52:02.638Z,101696.19
2023-10-09T13:54:40.820Z,101697.59
2023-10-09T13:57:11.748Z,101710.13
2023-10-09T13:59:45.060Z,101702.91
2023-10-09T14:02:18.868Z,101706.19
2023-10-09T14:04:48.716Z,101713.09
2023-10-09T14:07:19.038Z,101707.50
2023-10-09T14:09:56.751Z,101718.38
2023-10-09T14:12:26.312Z,101719.47
2023-10-09T14:14:56.007Z,101720.41
2023-10-09T14:17:26.807Z,101722.44
2023-10-09T14:19:56.762Z,101725.00
2023-10-09T14:22:27.888Z,101734.28
2023-10-09T14:24:57.446Z,101728.91
2023-10-09T14:27:28.330Z,101722.03
2023-10-09T14:30:00.847Z,101728.59
2023-10-09T14:32:35.246Z,101733.81
2023-10-09T14:35:05.909Z,101728.59
2023-10-09T14:37:33.974Z,101740.50
2023-10-09T14:40:03.567Z,101738.06
2023-10-09T14:42:31.577Z,101725.28
2023-10-09T14:45:00.991Z,101726.09
2023-10-09T14:47:29.084Z,101729.25
2023-10-09T14:50:02.683Z,101744.28
2023-10-09T14:52:30.645Z,101739.78
2023-10-09T14:54:59.408Z,101823.63
2023-10-09T14:57:27.368Z,101812.63
2023-10-09T14:59:55.575Z,101807.03
2023-10-09T15:02:25.201Z,101795.88
2023-10-09T15:04:54.269Z,101809.25
2023-10-09T15:07:39.315Z,101809.25
2023-10-09T15:10:10.444Z,101804.16
2023-10-09T15:12:43.921Z,101815.75
2023-10-09T15:15:14.903Z,101811.06
2023-10-09T15:17:47.092Z,101814.50
2023-10-09T15:20:15.826Z,101817.16
2023-10-09T15:22:43.884Z,101819.09
2023-10-09T15:25:15.705Z,101817.63
2023-10-09T15:27:44.048Z,101828.34
2023-10-09T15:30:15.069Z,101833.50
2023-10-09T15:32:45.170Z,101824.88
2023-10-09T15:35:14.726Z,101817.91
2023-10-09T15:37:43.631Z,101817.50
2023-10-09T15:40:16.010Z,101823.53
2023-10-09T15:42:45.245Z,101824.63
2023-10-09T15:45:14.194Z,101827.81
2023-10-09T15:47:42.147Z,101826.88
2023-10-09T15:50:14.152Z,101843.25
2023-10-09T15:52:42.537Z,101835.88
2023-10-09T15:55:14.660Z,101822.13
2023-10-09T15:57:43.332Z,101827.53
2023-10-09T16:00:18.781Z,101839.03
2023-10-09T16:02:47.149Z,101837.97
2023-10-09T16:05:18.076Z,101829.13
2023-10-09T16:07:46.401Z,101834.00
2023-10-09T16:10:14.422Z,101838.19
2023-10-09T16:12:43.491Z,101840.03
2023-10-09T16:15:15.594Z,101837.53
2023-10-09T16:17:45.050Z,101847.56
2023-10-09T16:20:22.439Z,101844.97
2023-10-09T16:22:51.958Z,101855.06
2023-10-09T16:25:22.190Z,101854.13
2023-10-09T16:27:51.619Z,101848.97
2023-10-09T16:30:22.358Z,101862.13
2023-10-09T16:32:51.691Z,101854.50
2023-10-09T16:35:23.620Z,101865.13
2023-10-09T16:37:54.185Z,101862.72
2023-10-09T16:40:22.375Z,101871.34
2023-10-09T16:42:54.588Z,101878.53
2023-10-09T16:45:22.872Z,101879.50
2023-10-09T16:47:52.657Z,101878.47
2023-10-09T16:50:26.839Z,101874.09
2023-10-09T16:52:56.712Z,101874.31
2023-10-09T16:55:26.380Z,101883.06
2023-10-09T16:57:54.711Z,101885.84
2023-10-09T17:00:30.805Z,101886.69
2023-10-09T17:02:59.550Z,101888.59
2023-10-09T17:05:33.878Z,101883.31
2023-10-09T17:08:04.116Z,101885.94
2023-10-09T17:10:36.304Z,101881.41
2023-10-09T17:13:05.310Z,101883.31
2023-10-09T17:15:36.719Z,101891.56
2023-10-09T17:18:08.084Z,101894.06
2023-10-09T17:20:41.889Z,101895.16
2023-10-09T17:23:12.422Z,101891.56
2023-10-09T17:25:45.815Z,101897.66
2023-10-09T17:28:18.529Z,101890.59
2023-10-09T17:30:49.897Z,101892.38
2023-10-09T17:33:20.628Z,101895.09
2023-10-09T17:35:48.850Z,101893.19
2023-10-09T17:38:19.700Z,101888.88
2023-10-09T17:40:52.504Z,101880.19
2023-10-09T17:43:21.322Z,101886.31
2023-10-09T17:45:55.081Z,101894.22
2023-10-09T17:48:23.493Z,101903.06
2023-10-09T17:50:54.062Z,101899.50
2023-10-09T17:53:23.434Z,101899.50
2023-10-09T17:55:54.359Z,101899.63
2023-10-09T17:58:24.884Z,101905.84
2023-10-09T18:00:55.531Z,101902.41
2023-10-09T18:03:28.724Z,101907.69
2023-10-09T18:05:56.896Z,101908.66
2023-10-09T18:08:26.826Z,101906.94
2023-10-09T18:10:56.916Z,101913.13
2023-10-09T18:13:26.117Z,101913.84
2023-10-09T18:16:08.706Z,101899.22
2023-10-09T18:18:37.612Z,101916.00
2023-10-09T18:21:07.425Z,101909.13
2023-10-09T18:23:37.553Z,101913.38
2023-10-09T18:26:07.932Z,101917.84
2023-10-09T18:28:37.917Z,101915.31
2023-10-09T18:31:14.075Z,101920.53
2023-10-09T18:33:46.530Z,101922.22
2023-10-09T18:36:14.579Z,101926.03
2023-10-09T18:38:51.516Z,101919.94
2023-10-09T18:41:19.897Z,101923.69
2023-10-09T18:43:49.539Z,101922.78
2023-10-09T18:46:19.830Z,101925.47
2023-10-09T18:48:50.817Z,101918.41
2023-10-09T18:51:19.600Z,101913.22
2023-10-09T18:53:49.448Z,101907.25
2023-10-09T18:56:21.301Z,101909.16
2023-10-09T18:58:51.187Z,101911.84
2023-10-09T19:01:19.433Z,101918.94
2023-10-09T19:03:48.556Z,101918.94
2023-10-09T19:06:18.899Z,101922.59
2023-10-09T19:08:51.693Z,101925.28
2023-10-09T19:11:22.192Z,101925.56
2023-10-09T19:13:50.432Z,101921.78
2023-10-09T19:16:19.365Z,101925.34
2023-10-09T19:18:47.405Z,101925.63
2023-10-09T19:21:15.904Z,101932.72
2023-10-09T19:23:45.968Z,101927.50
2023-10-09T19:26:16.630Z,101928.47
2023-10-09T19:28:51.408Z,101928.47
2023-10-09T19:31:21.414Z,101920.59
2023-10-09T19:33:52.290Z,101930.31
2023-10-09T19:36:24.589Z,101922.66
2023-10-09T19:38:52.755Z,101929.59
2023-10-09T19:41:24.290Z,101915.88
2023-10-09T19:43:54.740Z,101919.00
2023-10-09T19:46:31.194Z,101928.28
2023-10-09T19:49:02.161Z,101932.59
2023-10-09T19:51:32.246Z,101936.41
2023-10-09T19:54:00.508Z,101936.56
2023-10-09T19:56:29.850Z,101938.38
2023-10-09T19:58:59.013Z,101930.47
2023-10-09T20:01:27.371Z,101928.44
2023-10-09T20:03:55.467Z,101925.66
2023-10-09T20:06:24.042Z,101934.50
2023-10-09T20:08:51.889Z,101932.91
2023-10-09T20:11:24.053Z,101927.47
2023-10-09T20:13:53.827Z,101931.28
2023-10-09T20:16:24.451Z,101928.78
2023-10-09T20:18:55.633Z,101924.25
2023-10-09T20:21:24.560Z,101928.31
2023-10-09T20:23:52.549Z,101928.59
2023-10-09T20:26:20.482Z,101930.44
2023-10-09T20:28:49.020Z,101925.44
2023-10-09T20:31:21.649Z,101930.56
2023-10-09T20:33:52.008Z,101927.44
2023-10-09T20:36:20.702Z,101931.16
2023-10-09T20:38:50.034Z,101917.66
2023-10-09T20:41:18.742Z,101930.91
2023-10-09T20:43:46.876Z,101924.09
2023-10-09T20:46:16.692Z,101927.75
2023-10-09T20:48:47.347Z,101921.69
2023-10-09T20:51:17.971Z,101931.41
2023-10-09T20:53:46.469Z,101934.78
2023-10-09T20:56:14.702Z,101931.34
2023-10-09T20:58:43.760Z,101936.59
2023-10-09T21:01:15.980Z,101934.13
2023-10-09T21:03:44.579Z,101931.44
2023-10-09T21:06:14.521Z,101941.03
2023-10-09T21:08:42.411Z,101929.66
2023-10-09T21:11:11.153Z,101926.47
2023-10-09T21:13:39.934Z,101932.41
2023-10-09T21:16:13.551Z,101931.53
2023-10-09T21:18:44.053Z,101932.34
2023-10-09T21:21:14.722Z,101933.53
2023-10-09T21:23:43.513Z,101931.88
2023-10-09T21:26:18.794Z,101932.88
2023-10-09T21:28:47.766Z,101940.81
2023-10-09T21:31:16.839Z,101926.69
2023-10-09T21:33:45.137Z,101926.56
2023-10-09T21:36:15.119Z,101930.25
2023-10-09T21:38:43.149Z,101926.88
2023-10-09T21:41:13.341Z,101926.00
2023-10-09T21:43:41.652Z,101874.44
2023-10-09T21:46:10.810Z,101867.41
2023-10-09T21:48:39.988Z,101869.13
2023-10-09T21:51:09.136Z,101857.63
2023-10-09T21:53:38.567Z,101851.47
2023-10-09T21:56:07.120Z,101849.59
2023-10-09T21:58:35.402Z,101844.38
2023-10-09T22:01:04.090Z,101832.19
2023-10-09T22:03:32.628Z,101833.72
2023-10-09T22:06:00.887Z,101844.25
2023-10-09T22:08:28.727Z,101845.28
2023-10-09T22:10:58.012Z,101836.56
2023-10-09T22:13:27.467Z,101838.38
2023-10-09T22:15:55.405Z,101828.69
2023-10-09T22:18:24.992Z,101832.19
2023-10-09T22:20:55.357Z,101832.25
2023-10-09T22:23:32.336Z,101827.25
2023-10-09T22:26:02.805Z,101826.44
2023-10-09T22:28:31.705Z,101824.69
2023-10-09T22:31:05.130Z,101835.22
2023-10-09T22:33:47.067Z,101823.84
2023-10-09T22:36:28.587Z,101822.25
2023-10-09T22:39:00.144Z,101810.22
2023-10-09T22:41:30.918Z,101814.63
2023-10-09T22:43:59.072Z,101807.72
2023-10-09T22:46:27.275Z,101806.00
2023-10-09T22:49:01.286Z,101810.47
2023-10-09T22:51:32.002Z,101804.41
2023-10-09T22:54:01.731Z,101801.09
2023-10-09T22:56:32.349Z,101788.06
2023-10-09T22:59:21.184Z,101795.03
2023-10-09T23:01:56.063Z,101799.53
2023-10-09T23:04:38.177Z,101797.84
2023-10-09T23:07:15.284Z,101808.41
2023-10-09T23:09:50.923Z,101800.53
2023-10-09T23:12:24.297Z,101794.44
2023-10-09T23:14:53.822Z,101785.00
2023-10-09T23:17:43.264Z,101797.22
2023-10-09T23:20:17.638Z,101798.25
2023-10-09T23:22:50.570Z,101802.66
2023-10-09T23:25:28.859Z,101798.31
2023-10-09T23:28:15.469Z,101795.72
2023-10-09T23:30:44.373Z,101780.94
2023-10-09T23:33:21.562Z,101782.91
2023-10-09T23:35:52.160Z,101778.41
2023-10-09T23:38:19.996Z,101782.69
2023-10-09T23:40:48.233Z,101785.44
2023-10-09T23:43:17.935Z,101788.03
2023-10-09T23:45:46.317Z,101785.41
2023-10-09T23:48:17.123Z,101792.38
2023-10-09T23:50:49.315Z,101789.75
2023-10-09T23:53:18.291Z,101789.78
2023-10-09T23:55:53.048Z,101787.13
2023-10-09T23:58:23.924Z,101781.94
